createdAt,value
2024-04-06T06:53:29.517Z,2.72
2024-04-06T06:54:30.499Z,3.07
2024-04-06T06:55:30.488Z,3.26
2024-04-06T06:56:30.457Z,3.46
2024-04-06T06:57:31.097Z,3.59
2024-04-06T06:58:31.003Z,3.74
2024-04-06T07:00:30.394Z,4.08
2024-04-06T07:01:30.547Z,4.22
2024-04-06T07:02:30.372Z,4.36
2024-04-06T07:03:30.385Z,4.49
2024-04-06T07:04:30.352Z,4.76
2024-04-06T07:05:30.335Z,4.96
2024-04-06T07:07:33.785Z,5.32
2024-04-06T07:08:31.209Z,5.46
2024-04-06T07:09:30.282Z,5.62
2024-04-06T07:10:30.276Z,5.74
2024-04-06T07:11:30.303Z,5.93
2024-04-06T07:12:31.124Z,6.08
2024-04-06T07:13:30.332Z,6.28
2024-04-06T07:14:30.243Z,6.57
2024-04-06T07:15:30.199Z,6.78
2024-04-06T07:16:31.155Z,6.83
2024-04-06T07:17:31.143Z,6.97
2024-04-06T07:18:30.218Z,7.08
2024-04-06T07:19:30.467Z,7.25
2024-04-06T07:20:30.142Z,7.21
2024-04-06T07:21:30.160Z,7.28
2024-04-06T07:22:30.118Z,7.21
2024-04-06T07:23:30.115Z,7.32
2024-04-06T07:24:30.091Z,7.36
2024-04-06T07:25:30.138Z,7.26
2024-04-06T07:26:30.085Z,7.05
2024-04-06T07:27:30.075Z,7.14
2024-04-06T07:28:30.046Z,7.12
2024-04-06T07:29:30.005Z,7.05
2024-04-06T07:30:30.133Z,7.04
2024-04-06T07:31:30.045Z,7.17
2024-04-06T07:32:30.647Z,7.29
2024-04-06T07:33:29.962Z,7.35
2024-04-06T07:34:29.985Z,7.44
2024-04-06T07:35:29.938Z,7.52
2024-04-06T07:36:29.935Z,7.57
2024-04-06T07:37:29.953Z,7.56
2024-04-06T07:38:29.919Z,7.53
2024-04-06T07:39:29.875Z,7.56
2024-04-06T07:40:29.915Z,7.67
2024-04-06T07:41:29.844Z,7.77
2024-04-06T07:42:29.848Z,7.84
2024-04-06T07:43:29.901Z,7.89
2024-04-06T07:44:29.813Z,7.86
2024-04-06T07:45:29.823Z,7.84
2024-04-06T07:46:29.810Z,7.97
2024-04-06T07:47:29.815Z,7.86
2024-04-06T07:48:29.777Z,8.02
2024-04-06T07:49:29.900Z,7.88
2024-04-06T07:50:29.750Z,7.82
2024-04-06T07:51:29.738Z,8.10
2024-04-06T07:52:30.641Z,8.35
2024-04-06T07:53:29.707Z,8.47
2024-04-06T07:54:29.699Z,8.69
2024-04-06T07:55:29.694Z,9.05
2024-04-06T07:56:29.710Z,9.24
2024-04-06T07:57:29.659Z,9.49
2024-04-06T07:58:29.639Z,9.62
2024-04-06T07:59:29.611Z,9.77
2024-04-06T08:00:29.594Z,9.90
2024-04-06T08:01:29.632Z,10.20
2024-04-06T08:02:29.656Z,10.42
2024-04-06T08:03:29.588Z,10.45
2024-04-06T08:04:29.555Z,10.09
2024-04-06T08:05:29.554Z,9.96
2024-04-06T08:06:29.554Z,10.09
2024-04-06T08:07:29.521Z,9.95
2024-04-06T08:08:29.580Z,9.80
2024-04-06T08:09:29.474Z,9.81
2024-04-06T08:10:29.455Z,9.74
2024-04-06T08:11:29.486Z,9.62
2024-04-06T08:12:29.446Z,9.89
2024-04-06T08:13:29.448Z,10.39
2024-04-06T08:14:29.407Z,10.64
2024-04-06T08:15:30.938Z,10.35
2024-04-06T08:16:29.384Z,10.35
2024-04-06T08:17:29.378Z,10.69
2024-04-06T08:18:29.376Z,11.07
2024-04-06T08:19:29.376Z,11.32
2024-04-06T08:20:29.373Z,11.39
2024-04-06T08:21:29.374Z,11.63
2024-04-06T08:22:29.316Z,11.85
2024-04-06T08:23:29.294Z,11.72
2024-04-06T08:24:29.278Z,11.62
2024-04-06T08:25:29.304Z,12.47
2024-04-06T08:26:29.271Z,12.89
2024-04-06T08:27:29.261Z,12.96
2024-04-06T08:28:29.239Z,13.10
2024-04-06T08:29:29.233Z,13.20
2024-04-06T08:30:29.212Z,13.56
2024-04-06T08:31:29.248Z,14.13
2024-04-06T08:32:30.176Z,14.47
2024-04-06T08:33:29.162Z,14.78
2024-04-06T08:34:29.152Z,15.20
2024-04-06T08:35:29.154Z,15.38
2024-04-06T08:36:30.087Z,15.50
2024-04-06T08:37:29.131Z,15.57
2024-04-06T08:38:29.148Z,15.80
2024-04-06T08:39:29.084Z,16.06
2024-04-06T08:40:29.155Z,17.17
2024-04-06T08:41:29.042Z,17.76
2024-04-06T08:42:29.054Z,18.04
2024-04-06T08:43:29.097Z,18.31
2024-04-06T08:44:29.035Z,18.39
2024-04-06T08:45:29.010Z,18.87
2024-04-06T08:46:29.007Z,19.01
2024-04-06T08:47:28.956Z,19.03
2024-04-06T08:48:28.988Z,19.05
2024-04-06T08:49:29.003Z,18.87
2024-04-06T08:50:28.941Z,19.15
2024-04-06T08:51:28.906Z,19.39
2024-04-06T08:52:28.913Z,19.49
2024-04-06T08:53:28.896Z,19.62
2024-04-06T08:54:29.658Z,19.72
2024-04-06T08:55:28.894Z,19.74
2024-04-06T08:56:28.848Z,19.75
2024-04-06T08:57:28.841Z,19.75
2024-04-06T08:58:28.856Z,20.02
2024-04-06T08:59:28.803Z,19.96
2024-04-06T09:00:28.806Z,19.79
2024-04-06T09:01:28.917Z,19.60
2024-04-06T09:02:28.761Z,19.66
2024-04-06T09:03:28.771Z,19.08
2024-04-06T09:04:28.761Z,18.29
2024-04-06T09:05:28.714Z,18.47
2024-04-06T09:06:28.723Z,16.91
2024-04-06T09:07:28.737Z,16.83
2024-04-06T09:08:29.670Z,16.79
2024-04-06T09:09:28.660Z,17.13
2024-04-06T09:10:28.663Z,17.84
2024-04-06T09:11:28.657Z,18.69
2024-04-06T09:12:28.623Z,18.86
2024-04-06T09:13:28.737Z,19.46
2024-04-06T09:14:28.600Z,19.72
2024-04-06T09:15:28.604Z,19.77
2024-04-06T09:16:28.602Z,19.81
2024-04-06T09:17:28.617Z,20.86
2024-04-06T09:18:31.079Z,21.40
2024-04-06T09:19:28.574Z,21.03
2024-04-06T09:20:28.526Z,20.99
2024-04-06T09:21:28.519Z,21.20
2024-04-06T09:22:28.502Z,21.51
2024-04-06T09:23:28.480Z,22.30
2024-04-06T09:24:28.479Z,21.83
2024-04-06T09:25:28.540Z,21.38
2024-04-06T09:26:28.478Z,21.08
2024-04-06T09:27:28.434Z,20.56
2024-04-06T09:28:28.457Z,19.62
2024-04-06T09:29:28.459Z,18.96
2024-04-06T09:30:28.422Z,18.21
2024-04-06T09:31:28.554Z,17.52
2024-04-06T09:32:28.386Z,17.02
2024-04-06T09:33:28.430Z,16.58
2024-04-06T09:34:28.346Z,16.56
2024-04-06T09:35:28.334Z,16.84
2024-04-06T09:36:28.301Z,16.77
2024-04-06T09:37:28.335Z,16.55
2024-04-06T09:38:28.293Z,16.84
2024-04-06T09:39:28.295Z,16.84
2024-04-06T09:40:28.274Z,16.90
2024-04-06T09:41:28.269Z,17.10
2024-04-06T09:42:28.243Z,17.03
2024-04-06T09:43:29.185Z,17.39
2024-04-06T09:44:28.225Z,17.72
2024-04-06T09:45:28.196Z,17.96
2024-04-06T09:46:28.204Z,17.85
2024-04-06T09:47:28.231Z,18.29
2024-04-06T09:48:28.176Z,19.40
2024-04-06T09:49:28.233Z,19.75
2024-04-06T09:50:28.156Z,20.72
2024-04-06T09:51:28.147Z,21.45
2024-04-06T09:52:28.095Z,21.71
2024-04-06T09:53:28.694Z,22.08
2024-04-06T09:54:28.076Z,22.25
2024-04-06T09:55:28.086Z,21.94
2024-04-06T09:56:28.687Z,22.39
2024-04-06T09:57:28.094Z,22.32
2024-04-06T09:58:28.111Z,22.74
2024-04-06T09:59:28.033Z,22.71
2024-04-06T10:00:28.071Z,22.71
2024-04-06T10:01:28.050Z,23.59
2024-04-06T10:02:27.963Z,23.98
2024-04-06T10:03:27.970Z,24.13
2024-04-06T10:04:27.969Z,24.12
2024-04-06T10:05:27.932Z,24.13
2024-04-06T10:06:27.960Z,24.63
2024-04-06T10:07:27.945Z,24.91
2024-04-06T10:08:28.696Z,24.70
2024-04-06T10:09:27.927Z,24.75
2024-04-06T10:10:27.892Z,25.75
2024-04-06T10:11:27.908Z,26.15
2024-04-06T10:12:27.889Z,26.47
2024-04-06T10:13:27.875Z,26.43
2024-04-06T10:14:27.896Z,26.72
2024-04-06T10:15:27.832Z,26.84
2024-04-06T10:16:27.829Z,27.23
2024-04-06T10:17:28.701Z,27.37
2024-04-06T10:18:27.806Z,27.53
2024-04-06T10:19:27.890Z,28.03
2024-04-06T10:20:27.753Z,28.02
2024-04-06T10:21:27.759Z,28.17
2024-04-06T10:22:27.762Z,27.72
2024-04-06T10:23:27.720Z,28.24
2024-04-06T10:24:27.716Z,28.63
2024-04-06T10:25:27.718Z,29.53
2024-04-06T10:26:27.668Z,29.76
2024-04-06T10:27:28.215Z,30.52
2024-04-06T10:28:27.675Z,31.02
2024-04-06T10:29:28.609Z,30.93
2024-04-06T10:30:28.198Z,29.95
2024-04-06T10:31:39.238Z,29.57
2024-04-06T10:32:27.634Z,29.72
2024-04-06T10:33:27.614Z,29.36
2024-04-06T10:34:33.634Z,29.61
2024-04-06T10:35:27.554Z,29.70
2024-04-06T10:36:27.547Z,30.04
2024-04-06T10:37:27.639Z,31.23
2024-04-06T10:38:27.530Z,31.69
2024-04-06T10:39:27.513Z,31.59
2024-04-06T10:40:27.501Z,31.61
2024-04-06T10:41:27.470Z,31.09
2024-04-06T10:42:27.480Z,30.89
2024-04-06T10:43:27.475Z,31.42
2024-04-06T10:44:27.424Z,31.12
2024-04-06T10:45:27.430Z,30.80
2024-04-06T10:46:27.479Z,30.39
2024-04-06T10:47:27.512Z,30.08
2024-04-06T10:48:28.218Z,29.57
2024-04-06T10:49:27.471Z,28.38
2024-04-06T10:50:27.352Z,27.92
2024-04-06T10:51:27.355Z,26.50
2024-04-06T10:52:27.356Z,25.75
2024-04-06T10:53:27.340Z,25.51
2024-04-06T10:54:27.326Z,25.89
2024-04-06T10:55:27.337Z,25.51
2024-04-06T10:56:27.296Z,24.96
2024-04-06T10:57:27.341Z,23.69
2024-04-06T10:58:27.406Z,22.96
2024-04-06T10:59:28.233Z,22.47
2024-04-06T11:00:27.234Z,22.08
2024-04-06T11:01:27.238Z,21.01
2024-04-06T11:02:27.194Z,21.03
2024-04-06T11:03:27.212Z,22.01
2024-04-06T11:04:27.154Z,22.08
2024-04-06T11:05:27.175Z,21.58
2024-04-06T11:06:27.153Z,21.94
2024-04-06T11:07:27.198Z,23.01
2024-04-06T11:08:28.235Z,23.40
2024-04-06T11:09:27.115Z,22.91
2024-04-06T11:10:27.619Z,23.17
2024-04-06T11:11:27.083Z,23.04
2024-04-06T11:12:27.071Z,22.71
2024-04-06T11:13:27.085Z,22.39
2024-04-06T11:14:27.021Z,22.18
2024-04-06T11:15:27.027Z,22.51
2024-04-06T11:16:27.746Z,21.81
2024-04-06T11:17:27.045Z,21.51
2024-04-06T11:18:26.989Z,21.23
2024-04-06T11:19:26.992Z,21.90
2024-04-06T12:23:18.155Z,4.95
2024-04-06T12:24:16.987Z,7.35
2024-04-06T12:25:16.943Z,9.73
2024-04-06T12:26:17.728Z,11.83
2024-04-06T12:27:16.938Z,13.84
2024-04-06T12:28:16.921Z,15.25
2024-04-06T12:29:17.119Z,16.62
2024-04-06T12:30:16.872Z,17.19
2024-04-06T12:31:16.930Z,18.42
2024-04-06T12:32:16.871Z,19.17
2024-04-06T12:33:16.849Z,19.55
2024-04-06T12:34:16.843Z,19.40
2024-04-06T12:35:16.850Z,19.74
2024-04-06T12:36:17.685Z,19.92
2024-04-06T12:37:17.216Z,20.16
2024-04-06T12:38:16.822Z,20.10
2024-04-06T12:39:16.798Z,20.22
2024-04-06T12:40:16.792Z,19.62
2024-04-06T12:41:16.800Z,19.89
2024-04-06T12:42:17.697Z,20.10
2024-04-06T12:59:03.312Z,6.26
2024-04-06T13:00:03.164Z,8.76
2024-04-06T13:01:03.118Z,11.12
2024-04-06T13:02:03.127Z,12.88
2024-04-06T13:03:03.117Z,14.12
2024-04-06T13:05:03.135Z,16.29
2024-04-06T13:06:03.096Z,16.90
2024-04-06T13:07:03.081Z,17.13
2024-04-06T13:08:03.025Z,17.22
2024-04-06T13:09:02.995Z,17.99
2024-04-06T13:10:03.015Z,17.75
2024-04-06T13:11:03.061Z,17.93
2024-04-06T13:12:03.271Z,18.96
2024-04-06T13:13:03.019Z,19.40
2024-04-06T13:14:02.987Z,19.39
2024-04-06T13:15:02.974Z,19.30
2024-04-06T13:16:02.970Z,20.00
2024-04-06T13:17:03.068Z,20.06
2024-04-06T13:18:02.899Z,19.49
2024-04-06T13:19:02.890Z,20.37
2024-04-06T13:20:02.894Z,20.89
2024-04-06T13:21:02.898Z,21.03
2024-04-06T13:22:02.902Z,21.05
2024-04-06T13:23:02.962Z,21.08
2024-04-06T13:24:02.846Z,20.25
2024-04-06T13:25:02.801Z,19.15
2024-04-06T13:26:02.788Z,19.31
2024-04-06T13:27:02.787Z,19.42
2024-04-06T13:28:02.789Z,19.44
2024-04-06T13:29:02.778Z,17.94
2024-04-06T13:30:03.387Z,18.28
2024-04-06T13:31:02.783Z,18.39
2024-04-06T13:32:02.744Z,18.28
2024-04-06T13:33:02.708Z,18.45
2024-04-06T13:34:02.715Z,18.44
2024-04-06T13:35:02.731Z,18.28
2024-04-06T13:36:02.696Z,18.15
2024-04-06T13:37:02.631Z,17.81
2024-04-06T13:38:02.666Z,17.90
2024-04-06T13:39:02.613Z,18.17
2024-04-06T13:40:02.620Z,18.59
2024-04-06T13:41:02.645Z,18.23
2024-04-06T13:42:02.652Z,17.84
2024-04-06T13:43:02.582Z,18.05
2024-04-06T13:44:03.291Z,18.47
2024-04-06T13:45:02.518Z,18.74
2024-04-06T13:46:02.529Z,18.36
2024-04-06T13:47:02.620Z,18.65
2024-04-06T13:48:02.487Z,18.74
2024-04-06T13:49:02.500Z,18.70
2024-04-06T13:50:02.503Z,18.17
2024-04-06T13:51:02.444Z,17.96
2024-04-06T13:52:02.448Z,17.22
2024-04-06T13:53:02.534Z,17.10
2024-04-06T13:54:02.432Z,17.63
2024-04-06T13:55:02.430Z,17.75
2024-04-06T13:56:02.469Z,17.96
2024-04-06T13:57:02.440Z,18.49
2024-04-06T13:58:02.402Z,18.18
2024-04-06T13:59:02.384Z,17.51
2024-04-06T14:00:02.368Z,17.17
2024-04-06T14:01:02.410Z,16.96
2024-04-06T14:02:02.897Z,16.45
2024-04-06T14:03:02.341Z,16.53
2024-04-06T14:04:02.322Z,16.43
2024-04-06T14:05:02.319Z,16.52
2024-04-06T14:06:02.401Z,17.20
2024-04-06T14:07:02.280Z,17.36
2024-04-06T14:08:02.234Z,17.76
2024-04-06T14:09:02.248Z,18.07
2024-04-06T14:10:02.211Z,18.41
2024-04-06T14:11:02.199Z,18.67
2024-04-06T14:12:02.150Z,18.28
2024-04-06T14:13:02.735Z,18.33
2024-04-06T14:14:02.152Z,18.39
2024-04-06T14:15:02.148Z,18.31
2024-04-06T14:16:02.125Z,17.70
2024-04-06T14:17:02.900Z,17.76
2024-04-06T14:18:02.084Z,17.45
2024-04-06T14:19:02.065Z,17.66
2024-04-06T14:20:02.088Z,17.88
2024-04-06T14:21:02.037Z,18.07
2024-04-06T14:22:02.015Z,17.76
2024-04-06T14:23:02.293Z,17.45
2024-04-06T14:24:01.983Z,16.90
2024-04-06T14:25:01.998Z,17.09
2024-04-06T14:26:01.991Z,17.42
2024-04-06T14:27:01.961Z,17.36
2024-04-06T14:28:01.973Z,17.43
2024-04-06T14:29:01.960Z,17.90
2024-04-06T14:30:01.956Z,18.10
2024-04-06T14:31:01.994Z,17.90
2024-04-06T14:32:01.964Z,17.76
2024-04-06T14:33:01.947Z,17.64
2024-04-06T14:34:01.865Z,17.46
2024-04-06T14:35:02.004Z,18.01
2024-04-06T14:36:01.830Z,18.34
2024-04-06T14:37:01.838Z,18.42
2024-04-06T14:38:01.801Z,18.34
2024-04-06T14:39:01.819Z,18.18
2024-04-06T14:40:02.404Z,17.58
2024-04-06T14:41:01.923Z,17.43
2024-04-06T14:42:01.759Z,17.48
2024-04-06T14:43:01.726Z,16.91
2024-04-06T14:44:01.735Z,16.96
2024-04-06T14:45:02.411Z,17.09
2024-04-06T14:46:01.704Z,17.52
2024-04-06T14:47:01.751Z,17.15
2024-04-06T14:48:01.692Z,17.48
2024-04-06T14:49:01.658Z,17.29
2024-04-06T14:50:01.647Z,17.06
2024-04-06T14:51:01.628Z,16.51
2024-04-06T14:52:01.618Z,16.32
2024-04-06T14:53:01.648Z,16.11
2024-04-06T14:54:01.614Z,15.85
2024-04-06T14:55:01.592Z,15.61
2024-04-06T14:56:02.421Z,15.42
2024-04-06T14:57:01.642Z,15.73
2024-04-06T14:58:01.537Z,16.49
2024-04-06T15:09:48.802Z,6.30
2024-04-06T15:10:47.796Z,8.19
2024-04-06T15:11:47.776Z,9.88
2024-04-06T15:12:47.754Z,11.54
2024-04-06T15:13:47.724Z,12.97
2024-04-06T15:14:47.725Z,14.04
2024-04-06T15:15:47.761Z,15.27
2024-04-06T15:16:47.693Z,16.38
2024-04-06T15:17:47.687Z,16.94
2024-04-06T15:18:47.693Z,17.13
2024-04-06T15:19:47.653Z,17.40
2024-04-06T15:20:47.661Z,17.87
2024-04-06T15:21:47.657Z,18.37
2024-04-06T15:22:47.622Z,18.57
2024-04-06T15:23:47.608Z,18.50
2024-04-06T15:24:47.585Z,18.82
2024-04-06T15:25:47.588Z,18.87
2024-04-06T15:26:47.569Z,19.21
2024-04-06T15:27:47.699Z,19.81
2024-04-06T15:28:47.570Z,19.98
2024-04-06T15:29:47.533Z,20.37
2024-04-06T15:30:47.517Z,20.76
2024-04-06T15:31:47.525Z,21.53
2024-04-06T15:32:47.482Z,21.58
2024-04-06T15:33:47.500Z,21.58
2024-04-06T15:34:47.473Z,21.27
2024-04-06T15:35:47.431Z,21.53
2024-04-06T15:36:47.710Z,21.62
2024-04-06T15:37:47.436Z,21.90
2024-04-06T15:38:47.432Z,21.60
2024-04-06T15:39:47.994Z,21.62
2024-04-06T15:40:47.590Z,21.85
2024-04-06T15:41:47.651Z,21.83
2024-04-06T15:42:47.438Z,21.71
2024-04-06T15:43:47.379Z,21.58
2024-04-06T15:44:47.486Z,21.27
2024-04-06T15:45:47.389Z,21.10
2024-04-06T15:46:47.400Z,21.38
2024-04-06T15:47:47.432Z,21.05
2024-04-06T15:48:47.879Z,21.01
2024-04-06T15:49:47.517Z,20.84
2024-04-06T15:50:47.424Z,20.58
2024-04-06T15:51:47.569Z,20.31
2024-04-06T15:52:47.405Z,20.10
2024-04-06T15:53:47.346Z,20.00
2024-04-06T15:54:47.204Z,19.57
2024-04-06T15:55:47.207Z,19.37
2024-04-06T15:56:47.231Z,19.03
2024-04-06T15:57:47.499Z,19.10
2024-04-06T15:58:47.194Z,19.05
2024-04-06T15:59:47.149Z,19.24
2024-04-06T16:00:47.128Z,18.59
2024-04-06T16:01:47.182Z,18.20
2024-04-06T16:02:47.093Z,18.34
2024-04-06T16:03:47.134Z,17.91
2024-04-06T16:04:47.054Z,17.91
2024-04-06T16:05:47.088Z,18.37
2024-04-06T16:06:47.034Z,18.84
2024-04-06T16:07:47.017Z,19.07
2024-04-06T16:08:47.005Z,19.33
2024-04-06T16:09:47.038Z,19.12
2024-04-06T16:10:47.011Z,19.05
2024-04-06T16:11:46.992Z,19.59
2024-04-06T16:12:46.955Z,20.17
2024-04-06T16:13:46.962Z,20.41
2024-04-06T16:14:46.992Z,21.05
2024-04-06T16:15:46.963Z,21.53
2024-04-06T16:16:46.929Z,22.20
2024-04-06T16:17:46.927Z,22.66
2024-04-06T16:18:47.000Z,23.17
2024-04-06T16:19:46.896Z,24.39
2024-04-06T16:20:46.854Z,24.91
2024-04-06T16:21:46.893Z,24.99
2024-04-06T16:22:46.825Z,25.21
2024-04-06T16:23:46.803Z,25.70
2024-04-06T16:24:46.796Z,26.42
2024-04-06T16:25:46.778Z,28.50
2024-04-06T16:26:46.784Z,29.38
2024-04-06T16:27:46.781Z,29.82
2024-04-06T16:28:46.759Z,31.23
2024-04-06T16:29:46.759Z,32.48
2024-04-06T16:30:46.758Z,33.63
2024-04-06T16:31:46.691Z,34.38
2024-04-06T16:32:46.717Z,35.17
2024-04-06T16:33:46.713Z,34.61
2024-04-06T16:34:46.700Z,34.33
2024-04-06T16:35:46.644Z,34.19
2024-04-06T16:36:46.680Z,34.61
2024-04-06T16:37:46.632Z,35.38
2024-04-06T16:38:46.613Z,35.65
2024-04-06T16:39:46.630Z,36.05
2024-04-06T16:40:46.588Z,35.96
2024-04-06T16:41:46.593Z,37.41
2024-04-06T16:42:46.602Z,37.45
2024-04-06T16:43:46.603Z,38.49
2024-04-06T16:44:46.534Z,37.82
2024-04-06T16:45:46.665Z,38.20
2024-04-06T16:46:46.508Z,37.86
2024-04-06T16:47:46.498Z,37.75
2024-04-06T16:48:46.496Z,38.06
2024-04-06T16:49:46.456Z,38.42
2024-04-06T16:50:46.451Z,38.13
2024-04-06T16:51:46.511Z,37.79
2024-04-06T16:52:46.438Z,37.82
2024-04-06T16:53:46.410Z,37.25
2024-04-06T16:54:46.418Z,37.58
2024-04-06T16:55:46.384Z,38.63
2024-04-06T16:56:46.386Z,38.49
2024-04-06T16:57:46.392Z,38.88
2024-04-06T16:58:46.342Z,39.32
2024-04-06T16:59:46.340Z,39.40
2024-04-06T17:00:46.334Z,39.29
2024-04-06T17:01:46.307Z,39.62
2024-04-06T17:02:46.305Z,38.56
2024-04-06T17:03:46.306Z,38.74
2024-04-06T17:04:46.305Z,39.29
2024-04-06T17:05:49.737Z,39.21
2024-04-06T17:06:46.248Z,39.36
2024-04-06T17:07:46.220Z,39.29
2024-04-06T17:08:46.209Z,38.85
2024-04-06T17:09:46.261Z,39.14
2024-04-06T17:10:46.256Z,39.47
2024-04-06T17:11:46.180Z,38.77
2024-04-06T17:12:46.169Z,38.67
2024-04-06T17:13:46.159Z,38.92
2024-04-06T17:14:46.173Z,39.17
2024-04-06T17:15:46.176Z,39.81
2024-04-06T17:16:46.122Z,39.58
2024-04-06T17:17:46.102Z,38.99
2024-04-06T17:18:46.116Z,39.14
2024-04-06T17:19:46.092Z,39.40
2024-04-06T17:20:46.040Z,39.62
2024-04-06T17:21:46.078Z,39.21
2024-04-06T17:22:46.040Z,38.92
2024-04-06T17:23:46.039Z,38.77
2024-04-06T17:24:46.022Z,39.77
2024-04-06T17:25:46.012Z,40.12
2024-04-06T17:26:45.971Z,39.89
2024-04-06T17:27:46.016Z,39.81
2024-04-06T17:28:45.941Z,39.85
2024-04-06T17:29:45.947Z,39.58
2024-04-06T17:30:45.928Z,39.58
2024-04-06T17:31:45.908Z,39.62
2024-04-06T17:32:45.908Z,39.47
2024-04-06T17:33:45.929Z,39.55
2024-04-06T17:34:45.884Z,40.35
2024-04-06T17:35:45.850Z,40.04
2024-04-06T17:36:45.870Z,40.20
2024-04-06T17:37:45.841Z,40.67
2024-04-06T17:38:45.812Z,40.79
2024-04-06T17:39:45.951Z,40.63
2024-04-06T17:40:45.784Z,39.89
2024-04-06T17:41:45.777Z,39.32
2024-04-06T17:42:45.783Z,39.66
2024-04-06T17:43:45.756Z,39.81
2024-04-06T17:44:45.760Z,38.77
2024-04-06T17:45:45.754Z,38.17
2024-04-06T17:46:45.728Z,37.38
2024-04-06T17:47:45.709Z,36.92
2024-04-06T17:48:45.678Z,36.65
2024-04-06T17:49:45.677Z,36.37
2024-04-06T17:50:45.656Z,36.08
2024-04-06T17:51:45.708Z,36.27
2024-04-06T17:52:45.636Z,35.96
2024-04-06T17:53:45.609Z,36.02
2024-04-06T17:54:45.635Z,35.74
2024-04-06T17:55:45.575Z,35.53
2024-04-06T17:56:47.716Z,35.41
2024-04-06T17:57:45.702Z,35.32
2024-04-06T17:58:45.564Z,35.96
2024-04-06T17:59:45.555Z,36.62
2024-04-06T18:00:45.583Z,36.46
2024-04-06T18:01:45.553Z,36.37
2024-04-06T18:02:45.496Z,36.53
2024-04-06T18:03:45.615Z,36.40
2024-04-06T18:04:45.479Z,36.69
2024-04-06T18:05:45.447Z,36.56
2024-04-06T18:06:45.449Z,36.18
2024-04-06T18:07:45.423Z,36.08
2024-04-06T18:08:45.454Z,35.99
2024-04-06T18:09:45.442Z,35.44
2024-04-06T18:10:45.421Z,36.21
2024-04-06T18:11:45.402Z,36.37
2024-04-06T18:12:45.373Z,36.33
2024-04-06T18:13:45.367Z,35.90
2024-04-06T18:14:45.362Z,35.35
2024-04-06T18:15:45.376Z,35.53
2024-04-06T18:16:45.331Z,35.20
2024-04-06T18:17:45.331Z,35.50
2024-04-06T18:18:45.313Z,35.29
2024-04-06T18:19:45.296Z,35.35
2024-04-06T18:20:45.268Z,34.99
2024-04-06T18:21:45.309Z,35.96
2024-04-06T18:22:45.242Z,36.37
2024-04-06T18:23:45.223Z,36.78
2024-04-06T18:24:45.253Z,37.01
2024-04-06T18:25:45.188Z,37.62
2024-04-06T18:26:45.215Z,37.41
2024-04-06T18:27:45.297Z,36.72
2024-04-06T18:28:45.152Z,36.72
2024-04-06T18:29:45.167Z,37.08
2024-04-06T18:30:45.135Z,37.28
2024-04-06T18:31:45.116Z,37.11
2024-04-06T18:32:45.131Z,37.51
2024-04-06T18:33:45.253Z,37.89
2024-04-06T18:34:45.088Z,37.92
2024-04-06T18:35:45.194Z,37.45
2024-04-06T18:36:45.047Z,37.25
2024-04-06T18:37:45.067Z,37.18
2024-04-06T18:38:45.062Z,37.11
2024-04-06T18:39:45.199Z,37.18
2024-04-06T18:40:45.044Z,37.25
2024-04-06T18:41:44.992Z,37.05
2024-04-06T18:42:45.009Z,37.18
2024-04-06T18:43:44.943Z,36.92
2024-04-06T18:44:45.054Z,37.45
2024-04-06T18:45:45.028Z,37.45
2024-04-06T18:46:44.969Z,36.98
2024-04-06T18:47:44.943Z,36.69
2024-04-06T18:48:44.948Z,36.30
2024-04-06T18:49:44.972Z,36.18
2024-04-06T18:50:44.959Z,35.90
2024-04-06T18:51:44.951Z,36.24
2024-04-06T18:52:44.934Z,35.59
2024-04-06T18:53:44.869Z,35.47
2024-04-06T18:54:44.874Z,35.68
2024-04-06T18:55:44.863Z,36.02
2024-04-06T18:56:44.832Z,36.46
2024-04-06T18:57:44.879Z,36.46
2024-04-06T18:58:44.805Z,36.53
2024-04-06T18:59:44.803Z,36.49
2024-04-06T19:00:44.806Z,36.40
2024-04-06T19:01:44.774Z,36.65
2024-04-06T19:02:44.779Z,36.98
2024-04-06T19:03:44.772Z,37.25
2024-04-06T19:04:44.746Z,37.08
2024-04-06T19:05:44.755Z,36.65
2024-04-06T19:06:44.698Z,37.45
2024-04-06T19:07:44.678Z,37.72
2024-04-06T19:08:44.688Z,38.13
2024-04-06T19:09:44.704Z,38.70
2024-04-06T19:10:44.661Z,39.21
2024-04-06T19:11:44.619Z,39.58
2024-04-06T19:12:44.606Z,39.51
2024-04-06T19:13:44.611Z,39.58
2024-04-06T19:14:44.619Z,40.20
2024-04-06T19:15:44.673Z,41.15
2024-04-06T19:16:44.612Z,41.35
2024-04-06T19:17:44.576Z,41.65
2024-04-06T19:18:44.529Z,42.45
2024-04-06T19:19:44.533Z,42.71
2024-04-06T19:20:44.554Z,43.07
2024-04-06T19:21:44.536Z,43.16
2024-04-06T19:22:44.471Z,42.89
2024-04-06T19:23:44.477Z,42.89
2024-04-06T19:24:44.461Z,42.58
2024-04-06T19:25:44.428Z,41.52
2024-04-06T19:26:44.449Z,40.55
2024-04-06T19:27:44.449Z,39.81
2024-04-06T19:28:44.398Z,38.24
2024-04-06T19:29:44.398Z,38.20
2024-04-06T19:30:44.383Z,37.82
2024-04-06T19:31:44.376Z,37.15
2024-04-06T19:32:44.376Z,36.72
2024-04-06T19:33:44.387Z,36.46
2024-04-06T19:34:44.368Z,35.99
2024-04-06T19:35:44.308Z,35.32
2024-04-06T19:36:44.338Z,34.41
2024-04-06T19:37:44.327Z,33.10
2024-04-06T19:38:44.272Z,32.50
2024-04-06T19:39:44.285Z,32.73
2024-04-06T19:40:44.247Z,31.98
2024-04-06T19:41:44.214Z,31.35
2024-04-06T19:42:44.206Z,31.64
2024-04-06T19:43:44.192Z,31.59
2024-04-06T19:44:44.195Z,32.13
2024-04-06T19:45:44.195Z,32.43
2024-04-06T19:46:44.167Z,33.39
2024-04-06T19:47:44.130Z,33.85
2024-04-06T19:48:44.145Z,34.50
2024-04-06T19:49:44.117Z,34.58
2024-04-06T19:50:44.124Z,34.13
2024-04-06T19:51:44.131Z,33.99
2024-04-06T19:52:44.070Z,34.04
2024-04-06T19:53:44.059Z,33.88
2024-04-06T19:54:44.111Z,33.28
2024-04-06T19:55:44.037Z,33.10
2024-04-06T19:56:44.029Z,32.94
2024-04-06T19:57:44.025Z,33.02
2024-04-06T19:58:45.362Z,32.78
2024-04-06T19:59:43.990Z,32.81
2024-04-06T20:00:43.989Z,32.81
2024-04-06T20:01:43.978Z,32.71
2024-04-06T20:02:43.937Z,32.15
2024-04-06T20:03:43.966Z,31.49
2024-04-06T20:04:43.912Z,31.26
2024-04-06T20:05:49.867Z,30.84
2024-04-06T20:06:43.885Z,30.73
2024-04-06T20:07:43.862Z,30.59
2024-04-06T20:08:43.887Z,30.24
2024-04-06T20:09:43.886Z,29.91
2024-04-06T20:10:43.860Z,29.78
2024-04-06T20:11:43.820Z,29.87
2024-04-06T20:12:43.825Z,29.51
2024-04-06T20:13:43.790Z,29.03
2024-04-06T20:14:43.777Z,28.85
2024-04-06T20:15:43.788Z,28.55
2024-04-06T20:16:43.769Z,28.97
2024-04-06T20:17:43.734Z,28.95
2024-04-06T20:18:43.740Z,29.13
2024-04-06T20:19:43.723Z,28.63
2024-04-06T20:20:43.725Z,28.51
2024-04-06T20:21:43.757Z,28.32
2024-04-06T20:22:43.666Z,27.74
2024-04-06T20:23:43.680Z,27.66
2024-04-06T20:24:47.500Z,27.68
2024-04-06T20:25:43.650Z,27.46
2024-04-06T20:26:43.630Z,27.46
2024-04-06T20:27:43.640Z,27.55
2024-04-06T20:28:43.626Z,27.35
2024-04-06T20:29:43.584Z,27.23
2024-04-06T20:30:43.586Z,27.48
2024-04-06T20:31:43.567Z,27.32
2024-04-06T20:32:43.537Z,27.19
2024-04-06T20:33:43.594Z,27.23
2024-04-06T20:34:43.532Z,27.05
2024-04-06T20:35:43.493Z,27.01
2024-04-06T20:37:43.470Z,26.50
2024-04-06T20:38:43.459Z,26.38
2024-04-06T20:39:43.492Z,26.10
2024-04-06T20:40:43.456Z,25.84
2024-04-06T20:41:43.432Z,25.95
2024-04-06T20:42:43.396Z,25.92
2024-04-06T20:43:43.400Z,25.68
2024-04-06T20:44:43.397Z,25.51
2024-04-06T20:45:43.492Z,25.71
2024-04-06T20:46:43.342Z,25.87
2024-04-06T20:47:43.331Z,26.25
2024-04-06T20:48:43.331Z,26.45
2024-04-06T20:49:43.301Z,26.20
2024-04-06T20:50:43.307Z,26.25
2024-04-06T20:51:43.420Z,26.89
2024-04-06T20:52:43.269Z,27.19
2024-04-06T20:53:43.248Z,27.28
2024-04-06T20:54:43.258Z,27.96
2024-04-06T20:55:43.230Z,28.02
2024-04-06T20:56:43.235Z,28.38
2024-04-06T20:57:43.238Z,28.36
2024-04-06T20:58:43.185Z,28.44
2024-04-06T20:59:43.181Z,28.32
2024-04-06T21:00:43.166Z,28.19
2024-04-06T21:01:43.174Z,27.59
2024-04-06T21:02:43.145Z,27.53
2024-04-06T21:03:43.183Z,27.23
2024-04-06T21:04:43.115Z,27.33
2024-04-06T21:05:43.099Z,26.94
2024-04-06T21:06:43.116Z,26.81
2024-04-06T21:07:43.063Z,26.96
2024-04-06T21:08:43.067Z,27.28
2024-04-06T21:09:43.094Z,27.33
2024-04-06T21:10:43.042Z,27.44
2024-04-06T21:11:43.054Z,27.32
2024-04-06T21:12:43.002Z,27.32
2024-04-06T21:13:42.994Z,27.30
2024-04-06T21:14:42.993Z,27.77
2024-04-06T21:15:42.996Z,28.07
2024-04-06T21:16:42.974Z,28.07
2024-04-06T21:17:42.934Z,28.11
2024-04-06T21:18:42.947Z,28.02
2024-04-06T21:19:42.948Z,27.90
2024-04-06T21:20:42.920Z,28.28
2024-04-06T21:21:42.954Z,28.40